createdAt,value
2023-04-29T00:01:37.135Z,100681.59
2023-04-29T00:04:04.639Z,100663.13
2023-04-29T00:06:32.262Z,100674.63
2023-04-29T00:08:59.275Z,100691.69
2023-04-29T00:11:27.015Z,100631.03
2023-04-29T00:13:53.937Z,100678.38
2023-04-29T00:16:21.174Z,100695.75
2023-04-29T00:18:49.681Z,100538.78
2023-04-29T00:21:17.064Z,100597.19
2023-04-29T00:23:44.532Z,100657.97
2023-04-29T00:26:12.200Z,100669.88
2023-04-29T00:28:39.147Z,100672.00
2023-04-29T00:31:06.562Z,100672.00
2023-04-29T00:33:34.015Z,100663.72
2023-04-29T00:36:03.083Z,100600.00
2023-04-29T00:38:29.982Z,100645.53
2023-04-29T00:40:57.382Z,100654.63
2023-04-29T00:43:24.502Z,100671.16
2023-04-29T00:45:52.084Z,100664.16
2023-04-29T00:48:19.062Z,100666.94
2023-04-29T00:50:46.320Z,100667.09
2023-04-29T00:53:14.840Z,100665.63
2023-04-29T00:55:43.999Z,100659.88
2023-04-29T00:58:12.079Z,100647.00
2023-04-29T01:00:41.713Z,100653.13
2023-04-29T01:03:09.570Z,100666.53
2023-04-29T01:05:37.027Z,100662.56
2023-04-29T01:08:22.512Z,100623.75
2023-04-29T01:10:57.090Z,100674.22
2023-04-29T01:13:31.076Z,100680.09
2023-04-29T01:16:05.566Z,100682.75
2023-04-29T01:18:36.955Z,100687.22
2023-04-29T01:21:04.445Z,100685.00
2023-04-29T01:23:33.550Z,100540.22
2023-04-29T01:26:00.919Z,100673.75
2023-04-29T01:28:43.015Z,100671.97
2023-04-29T01:31:18.392Z,100673.59
2023-04-29T01:33:51.119Z,100668.53
2023-04-29T01:36:32.219Z,100558.66
2023-04-29T01:39:09.937Z,100663.50
2023-04-29T01:41:43.989Z,100666.63
2023-04-29T01:44:18.821Z,100604.44
2023-04-29T01:46:52.792Z,100656.13
2023-04-29T01:49:21.268Z,100654.56
2023-04-29T01:51:48.397Z,100662.13
2023-04-29T01:54:17.244Z,100578.81
2023-04-29T01:56:44.301Z,100649.72
2023-04-29T01:59:11.910Z,100648.16
2023-04-29T02:01:39.125Z,100636.13
2023-04-29T02:04:06.568Z,100654.75
2023-04-29T02:06:34.013Z,100645.38
2023-04-29T02:09:01.094Z,100619.78
2023-04-29T02:11:29.960Z,100656.28
2023-04-29T02:13:57.237Z,100632.50
2023-04-29T02:16:24.628Z,100651.69
2023-04-29T02:18:51.813Z,100632.38
2023-04-29T02:21:19.118Z,100653.13
2023-04-29T02:23:46.478Z,100654.09
2023-04-29T02:26:15.524Z,100618.66
2023-04-29T02:28:44.403Z,100572.03
2023-04-29T02:31:11.769Z,100661.16
2023-04-29T02:33:39.021Z,100592.13
2023-04-29T02:36:06.348Z,100615.75
2023-04-29T02:38:33.841Z,100637.88
2023-04-29T02:41:01.189Z,100668.28
2023-04-29T02:43:30.953Z,100669.84
2023-04-29T02:46:00.411Z,100626.47
2023-04-29T02:48:27.687Z,100667.91
2023-04-29T02:50:54.979Z,100657.38
2023-04-29T02:53:22.019Z,100651.75
2023-04-29T02:55:49.387Z,100652.25
2023-04-29T02:58:16.586Z,100658.94
2023-04-29T03:00:44.172Z,100652.63
2023-04-29T03:03:12.909Z,100654.69
2023-04-29T03:05:40.851Z,100657.16
2023-04-29T03:08:09.642Z,100627.00
2023-04-29T03:10:37.868Z,100648.47
2023-04-29T03:13:05.972Z,100631.69
2023-04-29T03:15:33.728Z,100608.56
2023-04-29T03:18:02.033Z,100525.84
2023-04-29T03:20:32.530Z,100553.16
2023-04-29T03:23:01.221Z,100549.34
2023-04-29T03:25:28.955Z,100634.81
2023-04-29T03:27:57.313Z,100605.00
2023-04-29T03:30:24.561Z,100637.06
2023-04-29T03:32:52.175Z,100629.97
2023-04-29T03:35:19.925Z,100638.19
2023-04-29T03:37:48.165Z,100625.31
2023-04-29T03:40:15.873Z,100591.31
2023-04-29T03:42:42.999Z,100607.13
2023-04-29T03:45:13.291Z,100570.47
2023-04-29T03:47:42.012Z,100506.56
2023-04-29T03:50:09.872Z,100645.81
2023-04-29T03:52:37.117Z,100553.22
2023-04-29T03:55:07.820Z,100645.38
2023-04-29T03:57:35.223Z,100637.44
2023-04-29T04:00:04.153Z,100656.56
2023-04-29T04:02:33.025Z,100652.94
2023-04-29T04:05:01.846Z,100565.06
2023-04-29T04:07:30.372Z,100651.06
2023-04-29T04:09:59.453Z,100651.34
2023-04-29T04:12:28.456Z,100656.78
2023-04-29T04:14:56.061Z,100629.00
2023-04-29T04:17:23.465Z,100592.78
2023-04-29T04:19:52.607Z,100577.31
2023-04-29T04:22:24.732Z,100663.25
2023-04-29T04:24:55.313Z,100659.66
2023-04-29T04:27:22.482Z,100662.19
2023-04-29T04:29:55.165Z,100669.75
2023-04-29T04:32:22.318Z,100645.56
2023-04-29T04:34:50.080Z,100660.59
2023-04-29T04:37:17.709Z,100658.81
2023-04-29T04:39:45.680Z,100632.50
2023-04-29T04:42:14.731Z,100650.00
2023-04-29T04:44:42.097Z,100643.88
2023-04-29T04:47:11.698Z,100641.94
2023-04-29T04:49:39.298Z,100645.84
2023-04-29T04:52:06.795Z,100568.91
2023-04-29T04:54:34.923Z,100648.78
2023-04-29T04:57:05.284Z,100656.75
2023-04-29T04:59:33.771Z,100624.84
2023-04-29T05:02:00.941Z,100651.09
2023-04-29T05:04:29.636Z,100652.22
2023-04-29T05:06:56.685Z,100653.47
2023-04-29T05:09:24.093Z,100628.41
2023-04-29T05:11:51.186Z,100650.28
2023-04-29T05:14:18.652Z,100658.41
2023-04-29T05:16:46.644Z,100641.91
2023-04-29T05:19:14.059Z,100607.72
2023-04-29T05:21:42.561Z,100635.28
2023-04-29T05:24:10.154Z,100642.03
2023-04-29T05:26:38.238Z,100614.28
2023-04-29T05:29:05.621Z,100612.38
2023-04-29T05:31:33.531Z,100650.72
2023-04-29T05:34:00.913Z,100566.19
2023-04-29T05:36:28.075Z,100646.25
2023-04-29T05:38:56.623Z,100653.97
2023-04-29T05:41:25.021Z,100607.78
2023-04-29T05:43:52.656Z,100653.97
2023-04-29T05:46:20.672Z,100616.47
2023-04-29T05:48:48.022Z,100638.44
2023-04-29T05:51:15.094Z,100602.38
2023-04-29T05:53:42.298Z,100614.34
2023-04-29T05:56:11.010Z,100636.72
2023-04-29T05:58:39.535Z,100654.19
2023-04-29T06:01:07.180Z,100645.75
2023-04-29T06:03:35.060Z,100646.59
2023-04-29T06:06:02.578Z,100647.47
2023-04-29T06:08:30.551Z,100639.19
2023-04-29T06:10:57.482Z,100653.19
2023-04-29T06:13:26.598Z,100654.81
2023-04-29T06:15:53.591Z,100637.78
2023-04-29T06:18:20.952Z,100644.44
2023-04-29T06:20:47.958Z,100654.75
2023-04-29T06:23:15.581Z,100632.81
2023-04-29T06:25:42.644Z,100643.72
2023-04-29T06:28:09.821Z,100647.31
2023-04-29T06:30:38.373Z,100657.75
2023-04-29T06:33:05.978Z,100646.63
2023-04-29T06:35:33.158Z,100637.09
2023-04-29T06:38:00.477Z,100659.16
2023-04-29T06:40:27.490Z,100651.94
2023-04-29T06:42:54.865Z,100626.25
2023-04-29T06:45:21.816Z,100636.00
2023-04-29T06:47:50.909Z,100618.31
2023-04-29T06:50:18.233Z,100616.03
2023-04-29T06:52:45.539Z,100634.16
2023-04-29T06:55:12.596Z,100634.19
2023-04-29T06:57:39.965Z,100628.16
2023-04-29T07:00:08.628Z,100633.34
2023-04-29T07:02:36.169Z,100629.31
2023-04-29T07:05:05.139Z,100644.22
2023-04-29T07:07:32.392Z,100638.22
2023-04-29T07:09:59.303Z,100636.53
2023-04-29T07:12:26.732Z,100636.88
2023-04-29T07:14:53.660Z,100602.03
2023-04-29T07:17:20.923Z,100645.03
2023-04-29T07:19:48.811Z,100650.22
2023-04-29T07:22:17.982Z,100649.06
2023-04-29T07:24:45.156Z,100562.53
2023-04-29T07:27:18.573Z,100564.75
2023-04-29T07:29:45.596Z,100655.09
2023-04-29T07:32:13.483Z,100662.81
2023-04-29T07:34:40.496Z,100629.34
2023-04-29T07:37:07.788Z,100653.75
2023-04-29T07:39:36.758Z,100634.97
2023-04-29T07:42:04.621Z,100656.56
2023-04-29T07:44:31.810Z,100656.38
2023-04-29T07:46:59.099Z,100650.34
2023-04-29T07:49:26.483Z,100646.13
2023-04-29T07:51:53.996Z,100642.16
2023-04-29T07:54:22.424Z,100644.16
2023-04-29T07:56:50.954Z,100639.63
2023-04-29T07:59:18.574Z,100632.63
2023-04-29T08:01:45.814Z,100627.78
2023-04-29T08:04:15.891Z,100643.53
2023-04-29T08:06:43.345Z,100646.72
2023-04-29T08:09:10.850Z,100595.69
2023-04-29T08:11:39.985Z,100640.00
2023-04-29T08:14:12.008Z,100641.81
2023-04-29T08:16:39.409Z,100640.81
2023-04-29T08:19:06.676Z,100634.09
2023-04-29T08:21:34.900Z,100633.41
2023-04-29T08:24:02.165Z,100614.84
2023-04-29T08:26:30.532Z,100608.81
2023-04-29T08:28:57.495Z,100640.69
2023-04-29T08:31:27.210Z,100629.22
2023-04-29T08:33:54.809Z,100635.94
2023-04-29T08:36:22.049Z,100636.78
2023-04-29T08:38:52.924Z,100631.38
2023-04-29T08:41:20.490Z,100639.31
2023-04-29T08:43:48.121Z,100641.81
2023-04-29T08:46:16.391Z,100631.16
2023-04-29T08:48:45.928Z,100607.97
2023-04-29T08:51:16.072Z,100638.34
2023-04-29T08:53:43.490Z,100637.84
2023-04-29T08:56:16.692Z,100560.84
2023-04-29T08:58:44.673Z,100633.56
2023-04-29T09:01:12.927Z,100622.59
2023-04-29T09:03:51.776Z,100629.91
2023-04-29T09:06:19.886Z,100625.69
2023-04-29T09:08:47.630Z,100581.75
2023-04-29T09:11:16.798Z,100614.22
2023-04-29T09:13:43.837Z,100629.28
2023-04-29T09:16:14.104Z,100616.81
2023-04-29T09:18:49.344Z,100624.44
2023-04-29T09:21:21.087Z,100615.34
2023-04-29T09:23:51.896Z,100622.50
2023-04-29T09:26:19.456Z,100617.03
2023-04-29T09:28:47.774Z,100619.81
2023-04-29T09:31:15.171Z,100623.97
2023-04-29T09:33:54.474Z,100627.25
2023-04-29T09:36:45.669Z,100619.41
2023-04-29T09:39:15.021Z,100619.16
2023-04-29T09:41:59.202Z,100618.75
2023-04-29T09:44:34.272Z,100612.06
2023-04-29T09:47:11.135Z,100615.88
2023-04-29T09:49:45.249Z,100616.63
2023-04-29T09:52:14.301Z,100615.25
2023-04-29T09:54:42.947Z,100591.06
2023-04-29T09:57:11.403Z,100612.34
2023-04-29T09:59:40.273Z,100615.19
2023-04-29T10:02:15.354Z,100588.16
2023-04-29T10:04:46.090Z,100605.09
2023-04-29T10:07:16.128Z,100600.66
2023-04-29T10:09:45.114Z,100610.69
2023-04-29T10:12:16.321Z,100600.81
2023-04-29T10:14:47.268Z,100572.09
2023-04-29T10:17:20.915Z,100597.03
2023-04-29T10:19:54.421Z,100586.50
2023-04-29T10:22:29.446Z,100549.88
2023-04-29T10:24:59.245Z,100590.25
2023-04-29T10:27:28.472Z,100589.09
2023-04-29T10:29:58.710Z,100584.13
2023-04-29T10:32:30.552Z,100571.47
2023-04-29T10:35:05.604Z,100576.72
2023-04-29T10:37:33.088Z,100564.22
2023-04-29T10:40:11.005Z,100561.72
2023-04-29T10:42:45.578Z,100547.75
2023-04-29T10:45:36.081Z,100562.53
2023-04-29T10:48:14.039Z,100560.84
2023-04-29T10:51:03.831Z,100562.47
2023-04-29T10:53:31.582Z,100528.44
2023-04-29T10:56:06.391Z,100553.38
2023-04-29T10:58:38.442Z,100551.13
2023-04-29T11:01:06.150Z,100550.28
2023-04-29T11:03:55.758Z,100543.03
2023-04-29T11:06:26.039Z,100549.88
2023-04-29T11:09:04.224Z,100530.16
2023-04-29T11:11:58.680Z,100549.88
2023-04-29T11:14:29.273Z,100533.06
2023-04-29T11:16:58.993Z,100538.66
2023-04-29T11:19:31.354Z,100537.59
2023-04-29T11:22:10.241Z,100543.59
2023-04-29T11:24:48.225Z,100532.78
2023-04-29T11:27:15.915Z,100526.75
2023-04-29T11:29:45.460Z,100492.50
2023-04-29T11:32:13.028Z,100528.28
2023-04-29T11:34:40.477Z,100517.88
2023-04-29T11:37:09.489Z,100533.69
2023-04-29T11:39:37.043Z,100375.47
2023-04-29T11:42:05.198Z,100532.81
2023-04-29T11:44:34.399Z,100524.91
2023-04-29T11:47:04.860Z,100528.41
2023-04-29T11:49:32.978Z,100524.22
2023-04-29T11:52:00.261Z,100523.19
2023-04-29T11:54:30.275Z,100512.22
2023-04-29T11:56:58.623Z,100520.34
2023-04-29T11:59:26.918Z,100527.78
2023-04-29T12:01:53.858Z,100514.69
2023-04-29T12:04:22.765Z,100508.06
2023-04-29T12:06:52.033Z,100512.84
2023-04-29T12:09:19.635Z,100512.63
2023-04-29T12:11:50.182Z,100513.25
2023-04-29T12:14:18.910Z,100507.88
2023-04-29T12:16:46.461Z,100506.59
2023-04-29T12:19:13.905Z,100508.25
2023-04-29T12:21:49.532Z,100510.09
2023-04-29T12:24:17.183Z,100503.66
2023-04-29T12:26:45.818Z,100493.94
2023-04-29T12:29:14.746Z,100502.25
2023-04-29T12:31:42.038Z,100479.19
2023-04-29T12:34:10.278Z,100494.56
2023-04-29T12:36:37.929Z,100481.03
2023-04-29T12:39:10.285Z,100490.16
2023-04-29T12:41:38.815Z,100481.47
2023-04-29T12:44:06.866Z,100479.81
2023-04-29T12:46:39.365Z,100483.13
2023-04-29T12:49:07.960Z,100467.53
2023-04-29T12:51:35.784Z,100481.69
2023-04-29T12:54:04.751Z,100477.31
2023-04-29T12:56:31.929Z,100478.53
2023-04-29T12:59:06.527Z,100476.06
2023-04-29T13:01:33.686Z,100470.44
2023-04-29T13:04:02.699Z,100465.66
2023-04-29T13:06:29.854Z,100460.91
2023-04-29T13:08:57.059Z,100451.06
2023-04-29T13:11:23.933Z,100459.38
2023-04-29T13:13:51.703Z,100448.97
2023-04-29T13:16:19.679Z,100447.91
2023-04-29T13:18:58.943Z,100445.81
2023-04-29T13:21:32.693Z,100433.75
2023-04-29T13:23:59.944Z,100440.81
2023-04-29T13:26:27.322Z,100434.81
2023-04-29T13:28:55.809Z,100439.81
2023-04-29T13:31:22.956Z,100423.00
2023-04-29T13:33:55.526Z,100437.75
2023-04-29T13:36:22.587Z,100428.59
2023-04-29T13:38:55.398Z,100401.03
2023-04-29T13:41:23.043Z,100434.81
2023-04-29T13:43:51.220Z,100419.50
2023-04-29T13:46:20.926Z,100425.31
2023-04-29T13:49:14.004Z,100425.72
2023-04-29T13:52:16.967Z,100402.88
2023-04-29T13:54:57.606Z,100420.06
2023-04-29T13:59:52.495Z,100422.31
2023-04-29T14:04:50.670Z,100382.94
2023-04-29T14:07:17.781Z,100408.03
2023-04-29T14:09:46.563Z,100409.50
2023-04-29T14:12:13.490Z,100405.78
2023-04-29T14:14:41.296Z,100406.66
2023-04-29T14:17:08.889Z,100402.31
2023-04-29T14:19:36.264Z,100403.00
2023-04-29T14:22:03.399Z,100397.00
2023-04-29T14:24:31.478Z,100377.91
2023-04-29T14:26:59.810Z,100381.25
2023-04-29T14:29:27.003Z,100402.84
2023-04-29T14:31:54.017Z,100402.81
2023-04-29T14:34:22.527Z,100398.66
2023-04-29T14:36:51.131Z,100396.53
2023-04-29T14:39:18.844Z,100377.25
2023-04-29T14:41:47.102Z,100399.09
2023-04-29T14:44:15.829Z,100391.03
2023-04-29T14:46:43.038Z,100377.53
2023-04-29T14:49:10.616Z,100381.25
2023-04-29T14:51:37.703Z,100385.66
2023-04-29T14:54:05.028Z,100376.31
2023-04-29T14:56:31.973Z,100384.84
2023-04-29T14:58:59.210Z,100385.66
2023-04-29T15:01:30.522Z,100387.53
2023-04-29T15:03:59.411Z,100376.09
2023-04-29T15:06:27.772Z,100377.19
2023-04-29T15:08:55.060Z,100390.03
2023-04-29T15:11:22.318Z,100386.53
2023-04-29T15:13:49.684Z,100397.34
2023-04-29T15:16:16.974Z,100390.47
2023-04-29T15:18:46.579Z,100377.19
2023-04-29T15:21:13.769Z,100401.91
2023-04-29T15:23:41.092Z,100397.31
2023-04-29T15:26:08.376Z,100402.72
2023-04-29T15:28:35.732Z,100398.56
2023-04-29T15:31:05.359Z,100396.50
2023-04-29T15:33:33.181Z,100394.16
2023-04-29T15:36:01.593Z,100396.88
2023-04-29T15:38:29.521Z,100398.13
2023-04-29T15:41:00.972Z,100376.50
2023-04-29T15:43:29.362Z,100400.38
2023-04-29T15:45:56.786Z,100398.09
2023-04-29T15:48:25.023Z,100392.72
2023-04-29T15:50:53.522Z,100391.25
2023-04-29T15:53:23.267Z,100386.03
2023-04-29T15:55:50.180Z,100400.81
2023-04-29T15:58:17.565Z,100387.47
2023-04-29T16:00:44.576Z,100400.53
2023-04-29T16:03:12.177Z,100395.53
2023-04-29T16:05:39.105Z,100386.34
2023-04-29T16:08:06.752Z,100394.38
2023-04-29T16:10:35.136Z,100400.81
2023-04-29T16:13:02.690Z,100408.91
2023-04-29T16:15:29.936Z,100394.34
2023-04-29T16:17:57.432Z,100409.69
2023-04-29T16:20:25.607Z,100410.06
2023-04-29T16:22:53.526Z,100407.00
2023-04-29T16:25:20.514Z,100397.53
2023-04-29T16:27:49.397Z,100406.22
2023-04-29T16:30:16.404Z,100403.69
2023-04-29T16:32:43.827Z,100403.88
2023-04-29T16:35:11.688Z,100400.75
2023-04-29T16:37:39.251Z,100405.31
2023-04-29T16:40:07.415Z,100402.56
2023-04-29T16:42:35.122Z,100407.94
2023-04-29T16:45:04.100Z,100408.97
2023-04-29T16:47:31.493Z,100410.41
2023-04-29T16:49:58.501Z,100389.47
2023-04-29T16:52:26.168Z,100412.56
2023-04-29T16:54:53.261Z,100364.47
2023-04-29T16:57:21.574Z,100416.72
2023-04-29T16:59:48.510Z,100418.13
2023-04-29T17:02:17.137Z,100409.16
2023-04-29T17:04:44.366Z,100408.28
2023-04-29T17:07:12.127Z,100416.41
2023-04-29T17:09:39.221Z,100414.38
2023-04-29T17:12:09.583Z,100411.84
2023-04-29T17:14:39.114Z,100411.41
2023-04-29T17:17:07.454Z,100414.09
2023-04-29T17:19:35.853Z,100417.41
2023-04-29T17:22:02.938Z,100415.66
2023-04-29T17:24:30.948Z,100420.41
2023-04-29T17:26:59.537Z,100418.94
2023-04-29T17:29:26.532Z,100418.13
2023-04-29T17:31:59.906Z,100411.44
2023-04-29T17:34:29.814Z,100398.47
2023-04-29T17:36:58.155Z,100392.06
2023-04-29T17:39:25.604Z,100413.25
2023-04-29T17:41:52.572Z,100412.84
2023-04-29T17:44:21.866Z,100414.31
2023-04-29T17:46:50.670Z,100417.41
2023-04-29T17:49:17.988Z,100372.63
2023-04-29T17:51:45.047Z,100422.81
2023-04-29T17:54:13.570Z,100423.81
2023-04-29T17:56:40.833Z,100415.50
2023-04-29T17:59:08.625Z,100418.81
2023-04-29T18:01:36.268Z,100422.81
2023-04-29T18:04:04.157Z,100418.06
2023-04-29T18:06:31.908Z,100421.75
2023-04-29T18:08:59.764Z,100419.84
2023-04-29T18:11:28.135Z,100425.63
2023-04-29T18:13:55.312Z,100430.09
2023-04-29T18:16:22.427Z,100420.81
2023-04-29T18:18:51.595Z,100430.56
2023-04-29T18:21:22.799Z,100426.75
2023-04-29T18:23:50.764Z,100424.47
2023-04-29T18:26:18.189Z,100430.00
2023-04-29T18:28:47.822Z,100433.72
2023-04-29T18:31:15.828Z,100427.72
2023-04-29T18:33:43.723Z,100431.63
2023-04-29T18:36:11.315Z,100426.34
2023-04-29T18:38:38.546Z,100431.91
2023-04-29T18:41:06.744Z,100433.13
2023-04-29T18:43:34.423Z,100439.06
2023-04-29T18:46:03.247Z,100441.28
2023-04-29T18:48:31.114Z,100435.47
2023-04-29T18:51:00.219Z,100436.66
2023-04-29T18:53:27.558Z,100437.88
2023-04-29T18:55:54.651Z,100439.47
2023-04-29T18:58:22.225Z,100440.19
2023-04-29T19:00:49.195Z,100440.66
2023-04-29T19:03:18.047Z,100428.03
2023-04-29T19:05:49.168Z,100440.34
2023-04-29T19:08:16.765Z,100438.75
2023-04-29T19:10:44.249Z,100439.94
2023-04-29T19:13:11.655Z,100447.53
2023-04-29T19:15:39.072Z,100449.41
2023-04-29T19:18:07.770Z,100446.91
2023-04-29T19:20:36.240Z,100448.47
2023-04-29T19:23:03.839Z,100456.31
2023-04-29T19:25:32.013Z,100430.13
2023-04-29T19:27:59.244Z,100457.81
2023-04-29T19:30:26.902Z,100456.63
2023-04-29T19:32:57.455Z,100429.69
2023-04-29T19:35:29.018Z,100448.84
2023-04-29T19:37:58.461Z,100444.13
2023-04-29T19:40:25.739Z,100447.84
2023-04-29T19:42:53.382Z,100440.50
2023-04-29T19:45:20.982Z,100448.94
2023-04-29T19:47:50.007Z,100437.31
2023-04-29T19:50:17.052Z,100443.38
2023-04-29T19:52:45.114Z,100442.91
2023-04-29T19:55:14.538Z,100446.78
2023-04-29T19:57:42.118Z,100439.44
2023-04-29T20:00:13.536Z,100445.47
2023-04-29T20:02:42.306Z,100433.50
2023-04-29T20:05:13.710Z,100449.34
2023-04-29T20:07:41.392Z,100427.66
2023-04-29T20:10:09.452Z,100437.19
2023-04-29T20:12:38.307Z,100445.72
2023-04-29T20:15:06.551Z,100420.56
2023-04-29T20:17:35.202Z,100445.97
2023-04-29T20:20:02.443Z,100439.53
2023-04-29T20:22:29.845Z,100456.09
2023-04-29T20:24:57.050Z,100458.31
2023-04-29T20:27:24.334Z,100459.31
2023-04-29T20:29:55.618Z,100418.41
2023-04-29T20:32:31.825Z,100448.31
2023-04-29T20:34:59.205Z,100448.97
2023-04-29T20:37:26.507Z,100450.72
2023-04-29T20:39:53.672Z,100449.53
2023-04-29T20:42:22.159Z,100454.03
2023-04-29T20:44:49.262Z,100451.91
2023-04-29T20:47:18.244Z,100453.41
2023-04-29T20:49:45.678Z,100458.50
2023-04-29T20:52:13.350Z,100446.50
2023-04-29T20:54:40.686Z,100467.09
2023-04-29T20:57:09.703Z,100462.84
2023-04-29T20:59:38.501Z,100457.88
2023-04-29T21:02:07.683Z,100469.44
2023-04-29T21:04:36.093Z,100469.81
2023-04-29T21:07:05.628Z,100465.63
2023-04-29T21:09:33.521Z,100465.97
2023-04-29T21:12:01.424Z,100464.81
2023-04-29T21:14:28.933Z,100428.53
2023-04-29T21:16:56.208Z,100466.84
2023-04-29T21:19:23.342Z,100455.28
2023-04-29T21:21:54.443Z,100461.31
2023-04-29T21:24:21.575Z,100467.69
2023-04-29T21:26:50.360Z,100465.19
2023-04-29T21:29:17.427Z,100471.06
2023-04-29T21:31:44.595Z,100448.50
2023-04-29T21:34:16.664Z,100446.88
2023-04-29T21:36:43.974Z,100478.59
2023-04-29T21:39:12.397Z,100476.28
2023-04-29T21:41:41.426Z,100473.94
2023-04-29T21:44:08.514Z,100473.28
2023-04-29T21:46:36.226Z,100471.75
2023-04-29T21:49:03.533Z,100472.44
2023-04-29T21:51:31.895Z,100475.78
2023-04-29T21:53:59.089Z,100477.16
2023-04-29T21:56:27.785Z,100478.47
2023-04-29T21:58:55.126Z,100485.34
2023-04-29T22:01:48.757Z,100485.00
2023-04-29T22:04:17.005Z,100480.31
2023-04-29T22:06:44.401Z,100488.50
2023-04-29T22:09:11.636Z,100488.69
2023-04-29T22:11:40.514Z,100494.34
2023-04-29T22:14:07.627Z,100493.19
2023-04-29T22:16:36.129Z,100484.78
2023-04-29T22:19:03.344Z,100496.13
2023-04-29T22:21:31.582Z,100479.56
2023-04-29T22:23:59.423Z,100489.25
2023-04-29T22:26:29.063Z,100468.69
2023-04-29T22:28:58.919Z,100479.22
2023-04-29T22:31:27.817Z,100402.69
2023-04-29T22:33:55.337Z,100478.91
2023-04-29T22:36:22.767Z,100485.94
2023-04-29T22:38:50.453Z,100476.41
2023-04-29T22:41:19.806Z,100481.91
2023-04-29T22:43:48.718Z,100444.97
2023-04-29T22:46:17.914Z,100476.25
2023-04-29T22:48:46.091Z,100458.53
2023-04-29T22:51:13.885Z,100384.34
2023-04-29T22:53:41.943Z,100471.72
2023-04-29T22:56:09.753Z,100379.44
2023-04-29T22:58:37.070Z,100372.09
2023-04-29T23:01:05.540Z,100474.91
2023-04-29T23:03:34.179Z,100467.72
2023-04-29T23:06:02.606Z,100391.16
2023-04-29T23:08:29.754Z,100477.25
2023-04-29T23:10:57.607Z,100470.25
2023-04-29T23:13:24.831Z,100407.03
2023-04-29T23:15:55.441Z,100406.38
2023-04-29T23:18:22.405Z,100470.25
2023-04-29T23:20:51.611Z,100460.38
2023-04-29T23:23:18.700Z,100467.56
2023-04-29T23:25:46.306Z,100397.03
2023-04-29T23:28:13.474Z,100455.38
2023-04-29T23:30:40.887Z,100464.56
2023-04-29T23:33:08.069Z,100465.72
2023-04-29T23:35:35.888Z,100471.72
2023-04-29T23:38:04.487Z,100401.16
2023-04-29T23:40:32.781Z,100469.69
2023-04-29T23:43:00.706Z,100447.94
2023-04-29T23:45:28.008Z,100431.38
2023-04-29T23:47:54.880Z,100471.84
2023-04-29T23:50:22.800Z,100447.72
2023-04-29T23:52:49.688Z,100451.91
2023-04-29T23:55:18.671Z,100448.22
2023-04-29T23:57:45.754Z,100454.72
